Sebastian Dos Santos

Ojeador - Santos Laguna
16 Abr 2028
Domingo
Continuar

Personalidad

Adaptabilidad (16) Ambición (16) Controversia (18) Lealtad (10) Presión (1) Profesionalismo (6) Deportividad (20) Temperamento (4)

Perfil

Estilo de dirección Democrático
Licencia Continental A
Determinación 7
Gestión de personas 11
Motivación 12
Disciplina 9
Satisfacción laboral
100%
Fatiga
0%
Cargo Ojeador
Salario 65.5K p/s
Contrato 14.03.2030

Rendimiento

Comportamiento Bueno
Efectividad del entrenamiento
36%
Desarrollo de jugadores
45%
Prevención de lesiones
30%
Implementación táctica
35%

Eventos recientes

Asistió a una reunión de captación ahora
Asistió a una reunión de captación ahora
Asistió a una reunión de captación ahora
Asistió a una reunión de captación 7d atrás
Asistió a una reunión de captación 7d atrás
Asistió a una reunión de captación 7d atrás
Recomendó un objetivo de fichaje 7d atrás
Asistió a una reunión de captación 7d atrás

Actualmente siguiendo

101
Jugador Club Estado Habilidad Confianza Observado Última observación Último voto
Chris Rigg Sunderland Activo 132 / 148 40% 1 03.04.2028 -
Giovanni Leoni Lincoln City Activo 131 / 138 40% 1 03.04.2028 -
Martim Cunha Porto Activo 113 / 120 40% 1 03.04.2028 -
Thulani Manyama SuperSport United Activo 120 / 122 40% 2 25.03.2028 -
Matvey Bardachev Zenit Activo 97 / 108 40% 2 25.03.2028 -
Tylel Tati Chamois Niortais Activo 117 / 126 40% 1 25.03.2028 -
Jorge Salinas Racing Santander Activo 128 / 130 40% 2 24.03.2028 -
Buba Sangaré Elche Activo 138 / 143 40% 1 24.03.2028 -
Tyler Fletcher Rotherham United Activo 111 / 123 40% 1 23.03.2028 -
Tobiáš Pališčák Zlin Activo 95 / 104 40% 1 23.03.2028 -
Daniel Banjaqui Benfica Activo 125 / 125 40% 1 21.03.2028 -
Riquelme Thompson-Jones Accrington Stanley Activo 105 / 113 40% 1 21.03.2028 -
Cheveyo Tsawa Club Brugge Activo 124 / 127 40% 2 19.03.2028 -
Konta Ismaily Activo 88 / 102 40% 1 19.03.2028 -
Abubakar Adams Aduana Stars Activo 75 / 96 40% 1 19.03.2028 -
Lamine Bèye Portimonense Activo 116 / 118 40% 1 18.03.2028 -
Nicolas Sport Recife Activo 100 / 118 40% 1 18.03.2028 -
Germán Barbas Burgos Activo 111 / 123 40% 2 17.03.2028 -
Bernardo Lima Porto Activo 102 / 109 40% 1 17.03.2028 -
Honest Ahanor Atalanta Activo 144 / 136 40% 1 17.03.2028 -
Marco Farfan Tigres Informe listo 118 / 123 69% 1 10.01.2028 -
Nicolás Ibáñez Cruz Azul Activo 142 / 132 69% 1 05.07.2027 Aprobar
José Pachuca Puebla Activo 108 / 116 40% 1 25.05.2027 -
Josh Davidson Milton Keynes Dons Activo 89 / 95 40% 1 25.05.2027 -
João Teixeira Porto Activo 114 / 111 40% 1 25.05.2027 -
Henrique Silva Santa Clara Activo 111 / 110 40% 2 24.05.2027 -
Zane Albarus Shrewsbury Town Activo 88 / 98 40% 1 24.05.2027 -
Samuel Lucero Defensa y Justicia Activo 122 / 124 40% 1 24.05.2027 -
Francis Gomez Cardiff City Activo 118 / 121 40% 2 23.05.2027 -
Kazunari Kita Real Sociedad Activo 96 / 111 40% 2 16.05.2027 -
Victor Hernandez Santa Fe Activo 119 / 126 40% 2 16.05.2027 -
Ezra Mayers West Ham United Activo 115 / 120 40% 1 16.05.2027 -
Bongani Jali Free State Stars Activo 83 / 110 40% 2 15.05.2027 -
Lucas Høgsberg RC Strasbourg Activo 124 / 144 40% 1 15.05.2027 -
Samuele di Benedetto Twente Activo 108 / 118 40% 2 14.05.2027 -
Gonçalo Oliveira Benfica Activo 121 / 109 40% 3 12.05.2027 -
Chari Giwa US Bougouni Activo 88 / 90 40% 1 12.05.2027 -
Pietro Reggiori Pro Patria Activo 101 / 103 40% 2 10.05.2027 -
Jenson Jones Walsall Activo 82 / 101 40% 2 09.05.2027 -
Caleb Yirenkyi Coventry City Activo 145 / 138 40% 2 06.05.2027 -
Rivaldo Mkhize Black Aces Activo 71 / 97 40% 1 06.05.2027 -
Eliás Montiel Borussia Dortmund Activo 132 / 140 40% 2 05.05.2027 -
Santiago Murillo Alianza Petrolera Activo 136 / 128 40% 2 05.05.2027 -
Jorge Moreno Athletic Bilbao Activo 108 / 137 40% 1 03.05.2027 -
Miguel Figueiredo Benfica Activo 102 / 112 40% 1 03.05.2027 -
Afriyie Sulemana WAFA Activo 76 / 91 40% 1 30.04.2027 -
Finn Jeltsch VfB Stuttgart Activo 145 / 148 40% 1 30.04.2027 -
Matvey Kislyak CSKA Moscow Activo 123 / 144 40% 1 30.04.2027 -
Jan Bürger Northampton Town Activo 118 / 110 40% 2 26.04.2027 -
Louis Leroux FC Nantes Activo 125 / 121 40% 1 26.04.2027 -
Alpha Touré FC Metz Activo 126 / 122 40% 2 24.04.2027 -
Milan Roganović Racing Genk Activo 104 / 120 40% 1 24.04.2027 -
Juan Pablo De la Reta Rayo Vallecano Activo 101 / 119 40% 1 24.04.2027 -
Yassine Khalifi Charleroi Activo 99 / 119 40% 1 16.04.2027 -
Lucas Agazzi Villarreal Activo 133 / 122 40% 1 12.04.2027 -
James Dornelly Peterborough United Activo 96 / 104 40% 1 07.04.2027 -
Toni Tamarit Alverca Activo 109 / 130 40% 1 07.04.2027 -
Marcelo Allende Mamelodi Sundowns Activo 142 / 134 40% 2 25.01.2027 -
Dara O'Shea Ipswich Town Activo 131 / 136 40% 1 12.01.2027 -
Maicon Levski Activo 124 / 127 40% 1 12.01.2027 -
Jackson Porozo Tijuana Activo 121 / 121 40% 1 12.01.2027 -
Justo Giani Umraniyespor Activo 131 / 127 40% 2 03.01.2027 -
Luis Caicedo Spartak 1918 Activo 101 / 86 40% 1 31.12.2026 -
Joe Gelhardt Hull City Activo 134 / 131 40% 1 31.12.2026 -
Manu Morlanes Mallorca Activo 145 / 142 40% 6 29.12.2026 -
Paulo Victor Queretaro Activo 111 / 119 40% 1 29.12.2026 -
Ilyas Ansah Hull City Activo 128 / 143 40% 1 29.12.2026 -
Scott Twine Bristol City Activo 126 / 128 40% 2 23.12.2026 -
Alexander Díaz Deportivo Riestra Activo 111 / 123 40% 1 22.12.2026 -
Brian Gutiérrez Guadalajara Activo 131 / 129 40% 1 19.12.2026 -
Julián Palacios Unión de Santa Fe Activo 111 / 117 40% 1 19.12.2026 -
Tyrhys Dolan Espanyol Activo 142 / 143 40% 1 19.12.2026 -
Omar Campos Cruz Azul Activo 128 / 127 40% 1 18.12.2026 -
Diego Lainez Tigres Activo 130 / 122 40% 2 16.12.2026 Más información
Juan Bisanz Huracán Activo 129 / 124 40% 3 15.12.2026 -
Jaminton Campaz Rosario Central Activo 118 / 125 40% 1 15.12.2026 -
Alan Lescano Argentinos Juniors Activo 125 / 131 40% 1 12.12.2026 -
Franco Watson Lanús Activo 117 / 126 40% 1 12.12.2026 -
Finn Azaz Southampton Activo 143 / 123 40% 3 10.12.2026 -
Bradley Zwane SuperSport United Activo 123 / 117 40% 2 10.12.2026 -
Armstrong Oko-Flex Levski Activo 116 / 115 40% 1 10.12.2026 -
Oswin Appollis Orlando Pirates Activo 121 / 113 40% 2 07.12.2026 -
Jack McGlynn Stoke City Activo 123 / 133 40% 1 02.12.2026 -
Brian Rodríguez Club America Activo 123 / 124 40% 1 02.12.2026 -
Daniel Kyerewaa Reading Activo 120 / 117 40% 1 29.11.2026 -
Carlos Álvarez Club America Activo 147 / 141 40% 4 21.11.2026 -
Alejandro Pozo Standard Liege Activo 135 / 117 40% 2 20.11.2026 -
Franco Zapiola Platense Activo 129 / 125 40% 2 20.11.2026 -
Nicolás Retamar Ferro Carril Oeste Activo 110 / 109 40% 1 16.11.2026 -
Ramiro Ruiz Rodríguez Atlético Tucumán Activo 123 / 123 40% 1 16.11.2026 -
Thomas Carrique Andorra Activo 104 / 124 40% 1 14.11.2026 -
Alejo Cruz Juventud Activo 124 / 114 40% 1 14.11.2026 -
Elías López Aldosivi Activo 117 / 118 40% 1 12.11.2026 -
Alexis Cuello San Lorenzo Activo 128 / 128 40% 2 11.11.2026 -
Reda Khadra Qarabag Activo 137 / 121 40% 1 11.11.2026 -
John Mercado Sparta Prague Activo 121 / 113 40% 1 10.11.2026 Más información
Franco Ibarra Rosario Central Activo 120 / 128 40% 1 09.11.2026 -
Gastón Benedetti Estudiantes Activo 117 / 128 40% 1 09.11.2026 -
Rick Talleres Activo 123 / 118 40% 1 07.11.2026 -
Alex Luna Instituto Activo 136 / 136 40% 1 03.11.2026 -
Carlos Forbs Club Brugge Activo 122 / 126 40% 1 03.11.2026 Más información